createdAt,value
2024-03-16T00:01:01.892Z,2.17
2024-03-16T00:03:29.738Z,2.60
2024-03-16T00:05:57.455Z,2.27
2024-03-16T00:08:24.711Z,2.30
2024-03-16T00:10:51.907Z,2.10
2024-03-16T00:13:18.486Z,1.80
2024-03-16T00:15:49.432Z,1.90
2024-03-16T00:18:16.184Z,1.93
2024-03-16T00:20:43.077Z,2.30
2024-03-16T00:23:09.461Z,2.00
2024-03-16T00:25:35.822Z,2.17
2024-03-16T00:28:02.313Z,2.00
2024-03-16T00:30:28.762Z,2.20
2024-03-16T00:32:55.642Z,2.10
2024-03-16T00:35:22.250Z,2.10
2024-03-16T00:37:49.122Z,2.37
2024-03-16T00:40:16.908Z,2.40
2024-03-16T00:42:43.570Z,1.90
2024-03-16T00:45:09.986Z,2.07
2024-03-16T00:47:36.520Z,2.40
2024-03-16T00:50:03.130Z,2.03
2024-03-16T00:52:29.507Z,2.03
2024-03-16T00:54:57.556Z,1.83
2024-03-16T00:57:24.864Z,1.97
2024-03-16T00:59:51.283Z,1.90
2024-03-16T01:02:18.832Z,2.00
2024-03-16T01:04:45.204Z,1.80
2024-03-16T01:07:11.615Z,1.70
2024-03-16T01:09:38.122Z,1.90
2024-03-16T01:12:04.904Z,1.53
2024-03-16T01:14:31.275Z,2.23
2024-03-16T01:16:57.684Z,1.93
2024-03-16T01:19:24.110Z,1.70
2024-03-16T01:21:50.542Z,1.70
2024-03-16T01:24:17.028Z,1.60
2024-03-16T01:26:43.691Z,1.70
2024-03-16T01:29:15.050Z,1.63
2024-03-16T01:31:41.498Z,1.43
2024-03-16T01:34:08.090Z,1.70
2024-03-16T01:36:34.688Z,1.50
2024-03-16T01:39:01.054Z,1.30
2024-03-16T01:41:27.408Z,1.20
2024-03-16T01:43:54.080Z,1.27
2024-03-16T01:46:20.513Z,1.17
2024-03-16T01:48:50.255Z,1.20
2024-03-16T01:51:16.726Z,1.07
2024-03-16T01:53:43.257Z,1.00
2024-03-16T01:56:10.069Z,1.03
2024-03-16T01:58:39.751Z,1.10
2024-03-16T02:01:06.238Z,1.10
2024-03-16T02:03:32.772Z,0.80
2024-03-16T02:05:59.258Z,0.80
2024-03-16T02:08:27.239Z,1.10
2024-03-16T02:10:53.637Z,0.90
2024-03-16T02:13:20.149Z,0.90
2024-03-16T02:15:46.606Z,0.90
2024-03-16T02:18:13.050Z,0.80
2024-03-16T02:20:39.485Z,1.13
2024-03-16T02:23:05.834Z,1.20
2024-03-16T02:25:32.206Z,0.90
2024-03-16T02:27:58.652Z,0.90
2024-03-16T02:30:25.322Z,1.00
2024-03-16T02:32:51.740Z,1.10
2024-03-16T02:35:19.043Z,1.17
2024-03-16T02:37:45.461Z,1.03
2024-03-16T02:40:12.995Z,1.23
2024-03-16T02:42:42.115Z,1.23
2024-03-16T02:45:08.807Z,1.30
2024-03-16T02:47:35.286Z,0.90
2024-03-16T02:50:04.897Z,1.47
2024-03-16T02:52:34.726Z,1.20
2024-03-16T02:55:01.197Z,1.30
2024-03-16T02:57:27.641Z,1.20
2024-03-16T02:59:54.068Z,1.33
2024-03-16T03:02:24.428Z,1.33
2024-03-16T03:04:51.813Z,1.40
2024-03-16T03:07:18.754Z,1.20
2024-03-16T03:09:45.690Z,1.37
2024-03-16T03:12:12.055Z,1.30
2024-03-16T03:14:38.409Z,1.13
2024-03-16T03:17:04.742Z,1.30
2024-03-16T03:19:31.547Z,1.57
2024-03-16T03:21:58.068Z,1.33
2024-03-16T03:24:24.415Z,1.70
2024-03-16T03:26:50.985Z,1.80
2024-03-16T03:29:17.463Z,1.67
2024-03-16T03:31:43.851Z,1.90
2024-03-16T03:34:10.331Z,1.93
2024-03-16T03:36:37.083Z,2.07
2024-03-16T03:39:04.026Z,2.10
2024-03-16T03:41:30.458Z,2.50
2024-03-16T03:44:01.232Z,2.37
2024-03-16T03:46:41.275Z,2.33
2024-03-16T03:49:16.077Z,2.57
2024-03-16T03:51:42.644Z,2.53
2024-03-16T03:54:08.991Z,2.43
2024-03-16T03:56:35.682Z,2.60
2024-03-16T03:59:03.242Z,2.27
2024-03-16T04:01:29.870Z,2.70
2024-03-16T04:03:57.198Z,2.43
2024-03-16T04:06:25.381Z,2.40
2024-03-16T04:08:51.749Z,2.40
2024-03-16T04:11:18.116Z,2.23
2024-03-16T04:13:44.472Z,2.73
2024-03-16T04:16:13.269Z,2.57
2024-03-16T04:18:40.227Z,2.40
2024-03-16T04:21:07.119Z,2.50
2024-03-16T04:23:33.993Z,3.20
2024-03-16T04:26:00.421Z,2.80
2024-03-16T04:28:26.804Z,2.73
2024-03-16T04:30:53.297Z,2.87
2024-03-16T04:33:19.728Z,3.20
2024-03-16T04:35:49.105Z,3.07
2024-03-16T04:38:15.436Z,2.50
2024-03-16T04:40:43.817Z,3.23
2024-03-16T04:43:10.259Z,2.60
2024-03-16T04:45:36.666Z,2.93
2024-03-16T04:48:03.332Z,2.73
2024-03-16T04:50:29.824Z,2.67
2024-03-16T04:52:56.228Z,2.73
2024-03-16T04:55:22.673Z,3.50
2024-03-16T04:57:49.052Z,3.13
2024-03-16T05:00:15.463Z,2.93
2024-03-16T05:02:42.636Z,2.40
2024-03-16T05:05:09.074Z,3.20
2024-03-16T05:07:36.146Z,2.47
2024-03-16T05:10:05.084Z,2.67
2024-03-16T05:12:31.592Z,2.77
2024-03-16T05:14:57.963Z,3.57
2024-03-16T05:17:24.347Z,3.10
2024-03-16T05:19:53.107Z,3.27
2024-03-16T05:22:19.598Z,3.10
2024-03-16T05:24:46.199Z,2.77
2024-03-16T05:27:13.627Z,2.80
2024-03-16T05:29:39.975Z,3.13
2024-03-16T05:32:06.469Z,3.47
2024-03-16T05:34:32.832Z,3.20
2024-03-16T05:36:59.265Z,3.30
2024-03-16T05:39:25.777Z,3.10
2024-03-16T05:41:52.194Z,3.23
2024-03-16T05:44:18.549Z,3.20
2024-03-16T05:46:44.889Z,3.33
2024-03-16T05:49:11.360Z,2.93
2024-03-16T05:51:37.857Z,3.07
2024-03-16T05:54:05.308Z,3.10
2024-03-16T05:56:33.428Z,3.00
2024-03-16T05:58:59.809Z,3.33
2024-03-16T06:01:26.298Z,2.90
2024-03-16T06:03:52.925Z,3.10
2024-03-16T06:06:19.311Z,3.67
2024-03-16T06:08:45.645Z,3.67
2024-03-16T06:11:12.013Z,4.10
2024-03-16T06:13:38.377Z,3.47
2024-03-16T06:16:05.025Z,3.30
2024-03-16T06:18:31.705Z,3.73
2024-03-16T06:20:58.109Z,4.23
2024-03-16T06:23:24.473Z,4.10
2024-03-16T06:25:52.016Z,4.40
2024-03-16T06:28:20.387Z,4.90
2024-03-16T06:30:54.330Z,5.87
2024-03-16T06:33:34.456Z,5.60
2024-03-16T06:36:01.237Z,5.50
2024-03-16T06:38:27.847Z,5.57
2024-03-16T06:40:54.713Z,6.10
2024-03-16T06:43:21.096Z,5.90
2024-03-16T06:45:47.506Z,6.03
2024-03-16T06:48:14.838Z,6.00
2024-03-16T06:50:41.229Z,6.27
2024-03-16T06:53:07.724Z,5.97
2024-03-16T06:55:34.542Z,4.87
2024-03-16T06:58:01.161Z,4.17
2024-03-16T07:00:27.958Z,3.20
2024-03-16T07:02:54.394Z,3.43
2024-03-16T07:05:20.761Z,2.73
2024-03-16T07:07:47.093Z,2.30
2024-03-16T07:10:13.656Z,2.50
2024-03-16T07:12:40.164Z,2.50
2024-03-16T07:15:08.953Z,2.80
2024-03-16T07:17:35.322Z,2.90
2024-03-16T07:20:01.682Z,2.87
2024-03-16T07:22:28.374Z,3.33
2024-03-16T07:24:55.673Z,3.47
2024-03-16T07:27:22.072Z,3.67
2024-03-16T07:29:48.432Z,3.63
2024-03-16T07:32:14.817Z,4.20
2024-03-16T07:34:41.165Z,3.50
2024-03-16T07:37:07.675Z,3.53
2024-03-16T07:39:34.099Z,3.80
2024-03-16T07:42:00.682Z,3.40
2024-03-16T07:44:27.072Z,3.10
2024-03-16T07:46:53.424Z,3.67
2024-03-16T07:49:21.826Z,3.40
2024-03-16T07:51:48.357Z,3.40
2024-03-16T07:54:16.314Z,3.50
2024-03-16T07:56:42.687Z,3.53
2024-03-16T07:59:10.764Z,3.70
2024-03-16T08:01:38.316Z,4.00
2024-03-16T08:04:05.406Z,4.03
2024-03-16T08:06:32.444Z,4.07
2024-03-16T08:08:58.823Z,3.20
2024-03-16T08:11:25.576Z,3.53
2024-03-16T08:13:52.819Z,3.70
2024-03-16T08:16:19.426Z,3.87
2024-03-16T08:18:47.049Z,3.63
2024-03-16T08:21:15.900Z,3.63
2024-03-16T08:23:42.395Z,3.07
2024-03-16T08:26:10.340Z,3.20
2024-03-16T08:28:37.083Z,2.60
2024-03-16T08:31:04.374Z,3.10
2024-03-16T08:33:30.993Z,3.00
2024-03-16T08:35:57.415Z,3.00
2024-03-16T08:38:25.201Z,2.90
2024-03-16T08:40:51.569Z,2.90
2024-03-16T08:43:17.952Z,3.10
2024-03-16T08:45:44.523Z,3.30
2024-03-16T08:48:11.676Z,3.43
2024-03-16T08:50:39.029Z,4.13
2024-03-16T08:53:05.414Z,4.83
2024-03-16T08:55:31.916Z,3.97
2024-03-16T08:57:58.378Z,4.20
2024-03-16T09:00:26.124Z,3.53
2024-03-16T09:02:53.258Z,3.87
2024-03-16T09:05:20.038Z,3.80
2024-03-16T09:07:46.439Z,3.43
2024-03-16T09:10:13.019Z,2.87
2024-03-16T09:12:39.997Z,2.53
2024-03-16T09:15:07.180Z,2.33
2024-03-16T09:17:34.274Z,2.10
2024-03-16T09:20:08.265Z,2.10
2024-03-16T09:22:38.267Z,2.10
2024-03-16T09:25:09.761Z,1.80
2024-03-16T09:27:36.980Z,1.80
2024-03-16T09:30:06.750Z,1.90
2024-03-16T09:32:35.053Z,1.63
2024-03-16T09:35:01.802Z,1.43
2024-03-16T09:37:28.184Z,1.30
2024-03-16T09:39:54.630Z,1.70
2024-03-16T09:42:23.046Z,1.53
